Vitor Souza

Recruteur en chef - Paysandu
16 Sept 2027
Jeudi
Processus

Personnalité

Adaptabilité (17) Ambition (2) Controverse (17) Loyauté (14) Pression (6) Professionnalisme (1) Sportivité (2) Tempérament (18)

Profil

Style d'entraînement Démocratique
Diplôme Continental Pro
Détermination 10
Gestion des joueurs 5
Motivation 11
Discipline 5
Satisfaction professionnelle
83%
Fatigue
0%
Rôle Recruteur en chef
Salaire 37.7K p/s
Contrat 14.03.2028

Performance

Comportement Bon
Efficacité de l'entraînement
17%
Développement des joueurs
50%
Prévention des blessures
35%
Mise en place tactique
25%

Événements récents

A participé à une réunion de recrutement maintenant
A recommandé une cible de transfert maintenant
A recommandé une cible de transfert maintenant
A participé à une réunion de recrutement 7j
A recommandé une cible de transfert 7j
A recommandé une cible de transfert 7j
A recommandé une cible de transfert 7j
A recommandé une cible de transfert 7j

Suivi en cours

99
Joueur Club Statut Capacité Confiance Observé Dernière observation Dernier vote
João Lucas Bahia Actif 86 / 87 76% 1 14.06.2027 Approuver
Orlando Neto São Paulo Actif 84 / 96 72% 1 06.12.2026 Approuver
Alfonso Trezza Arouca Actif 118 / 114 40% 5 02.12.2026 -
Miguel Pires Vizela Actif 114 / 109 40% 1 02.12.2026 -
Miguel Baeza Nacional Actif 113 / 121 40% 1 02.12.2026 -
Andreas Trimmel Red Bull Salzburg Actif 131 / 131 60% 1 01.12.2026 Approuver
Amar Memić Casa Pia Négociation 127 / 128 62% 1 01.12.2026 Approuver
André Silva Tondela Actif 126 / 136 40% 4 30.11.2026 -
Pau Víctor AVS Actif 147 / 147 40% 6 24.11.2026 -
Chuchu Ramírez Nacional Actif 141 / 141 40% 5 24.11.2026 -
Dawda Camara Alverca Actif 123 / 130 40% 2 22.11.2026 -
Richard Koné Queens Park Rangers Actif 127 / 113 40% 3 22.11.2026 -
Joe Gelhardt Hull City Actif 130 / 137 40% 1 22.11.2026 -
Jalen Blesa Rio Ave Actif 115 / 118 40% 3 18.11.2026 -
Petar Musa Adana Demirspor Actif 142 / 146 40% 1 17.11.2026 -
Oscar Gloukh Ajax Actif 136 / 136 40% 2 15.11.2026 -
André Clovis Leiria Actif 119 / 114 40% 3 14.11.2026 -
Yousef Salech Cardiff City Actif 116 / 115 40% 1 14.11.2026 -
Myron Boadu Twente Actif 120 / 121 40% 1 12.11.2026 -
Ianis Stoica Estrela da Amadora Actif 113 / 120 40% 4 11.11.2026 -
Adnan Courtois KV Oostende Actif 141 / 138 40% 1 11.11.2026 -
Roméo Beney Famalicao Actif 114 / 125 40% 4 09.11.2026 -
Romelu Castagne KV Oostende Actif 134 / 136 40% 2 09.11.2026 -
Vinícius Lopes Santa Clara Actif 120 / 116 40% 3 04.11.2026 -
Yanis Begraoui Estoril Praia Actif 123 / 143 40% 2 30.10.2026 -
Agustín Módica Gimnasia y Esgrima Actif 116 / 127 40% 1 30.10.2026 -
Zé Leite Leixões Actif 107 / 121 40% 5 29.10.2026 -
Ferreirinha Sport Recife Actif 123 / 124 40% 3 28.10.2026 -
Patson Daka Leicester City Actif 119 / 130 40% 1 25.10.2026 -
Negueba Mirassol Actif 131 / 114 40% 3 23.10.2026 -
Sead Hakšabanović Malmo FF Actif 118 / 118 40% 2 21.10.2026 -
Luka Kurtovic NK Domzale Actif 137 / 117 40% 1 21.10.2026 -
Manuel Ospina Cortulua Actif 119 / 119 40% 1 20.10.2026 -
Mourad Tijuana Actif 121 / 125 40% 2 18.10.2026 -
Andre Green AVS Actif 105 / 112 40% 2 17.10.2026 -
Cameron Archer Southampton Actif 119 / 119 40% 1 15.10.2026 -
Jair Silva Leiria Actif 100 / 110 40% 3 14.10.2026 -
Breel Embolo Atlanta United FC Actif 145 / 130 40% 3 12.10.2026 -
Zian Flemming Ipswich Town Actif 128 / 140 40% 1 12.10.2026 -
Rodrigo Bogarín Barracas Central Actif 116 / 115 40% 1 10.10.2026 -
Juninho Pumas UNAM Actif 131 / 133 40% 3 08.10.2026 -
Figueiredo Alverca Actif 128 / 137 40% 2 06.10.2026 -
Leonardo Campana New England Revolution Actif 129 / 134 40% 2 05.10.2026 -
Tommy Conway Middlesbrough Actif 133 / 128 40% 1 05.10.2026 -
Renato Kayser Vitória Actif 120 / 121 40% 1 04.10.2026 -
Alejandro Melo Cibalia Actif 107 / 102 40% 1 04.10.2026 -
Martín Tejón Maritimo Actif 115 / 114 40% 1 04.10.2026 -
Santiago Rodríguez Gimnasia y Esgrima Actif 117 / 114 40% 1 03.10.2026 -
Pablo Fernández Leiria Actif 107 / 101 40% 1 03.10.2026 -
Juan Muñoz Leiria Actif 128 / 119 40% 3 02.10.2026 -
Gabriel Jesus Barcelona Actif 160 / 143 40% 3 01.10.2026 -
Misael Sosa Godoy Cruz Actif 120 / 118 40% 1 01.10.2026 -
Kévin Denkey FC Cincinnati Actif 137 / 131 40% 3 28.09.2026 -
Héctor Hernández Gil Vicente Actif 123 / 135 40% 1 25.09.2026 -
Lucas Duarte Felgueiras Actif 109 / 108 40% 1 25.09.2026 -
Alonso Martínez New York City Actif 120 / 119 40% 1 20.09.2026 -
Edwar López Deportes Tolima Actif 118 / 123 40% 1 20.09.2026 -
Dylan Nandín Arouca Actif 121 / 119 40% 1 19.09.2026 -
Marcus Ingvartsen San Diego Football Club Actif 134 / 131 40% 1 16.09.2026 -
Rafael Navarro St. Louis CITY SC Actif 125 / 123 40% 1 16.09.2026 -
Mohammed Bouldini Académico de Viseu Actif 113 / 118 40% 2 15.09.2026 -
Martín Ojeda Orlando City Actif 135 / 127 40% 1 12.09.2026 -
Fally Mayulu Arouca Actif 105 / 108 40% 1 12.09.2026 -
Bénie Traoré New York City Actif 117 / 137 40% 2 11.09.2026 -
Lukas Nmecha Leeds United Actif 119 / 126 40% 1 11.09.2026 -
Henrique Araújo Casa Pia Actif 128 / 109 40% 2 10.09.2026 -
Ross Stewart Southampton Actif 130 / 136 40% 1 10.09.2026 -
Kévin Zohi Torreense Actif 116 / 109 40% 2 09.09.2026 -
João Klauss LA Galaxy Actif 113 / 118 40% 2 07.09.2026 -
Dany Jean Torreense Actif 104 / 112 40% 1 04.09.2026 -
Jesus Ferreira Seattle Sounders Actif 121 / 140 40% 1 31.08.2026 -
Fotis Ioannidis Rio Ave Actif 133 / 129 40% 1 31.08.2026 -
Mika Lusitânia Lourosa Actif 102 / 116 40% 1 31.08.2026 -
Oli McBurnie Hull City Actif 124 / 145 40% 1 29.08.2026 -
Agustín Anello Philadelphia Union Actif 124 / 116 40% 1 29.08.2026 -
Myrto Uzuni Austin FC Actif 124 / 144 40% 1 29.08.2026 -
Josh Sargent Toronto FC Actif 131 / 128 40% 1 26.08.2026 -
Maximiliano Rodríguez Huachipato Actif 113 / 108 40% 1 26.08.2026 -
Bryan Limbombe Maritimo Actif 112 / 96 40% 1 25.08.2026 -
Alexandre Duville-Parsemain Moreirense Actif 112 / 118 40% 1 24.08.2026 -
Angel Bastunov Vizela Actif 110 / 110 40% 1 24.08.2026 -
Wessam Abou Ali Columbus Crew Actif 134 / 135 40% 1 22.08.2026 -
André Lacximicant Estoril Praia Actif 99 / 100 40% 1 22.08.2026 -
Timo Werner San Jose Earthquakes Actif 128 / 137 40% 1 17.08.2026 -
Gabriel Taliari Juventude Actif 124 / 121 40% 1 15.08.2026 -
Pablo Ruan Nacional Actif 104 / 115 40% 1 14.08.2026 -
Santiago Ramos Mingo Bahia Actif 136 / 127 40% 1 07.08.2026 -
Jordan Holsgrove Estoril Praia Actif 141 / 139 40% 1 07.08.2026 -
Rodrigo Pinheiro Famalicao Actif 128 / 130 40% 1 06.08.2026 -
Sabit Abdulai Alverca Actif 111 / 126 40% 1 06.08.2026 -
Diogo Travassos Braga Actif 135 / 118 40% 1 06.08.2026 -
Adriel Torreense Actif 103 / 104 40% 1 06.08.2026 -
Rodrigo Morínigo Libertad Actif 120 / 111 40% 1 06.08.2026 -
Jakob Tånnander Farense Actif 113 / 102 40% 1 05.08.2026 -
Antonio Gomis Vizela Actif 113 / 107 40% 1 04.08.2026 -
Juan Soriano Académico de Viseu Actif 111 / 117 40% 1 04.08.2026 -
Mauro Silveira Junior Actif 109 / 123 40% 1 02.08.2026 -
Nicolás Campisi Sportivo Luqueno Actif 124 / 128 40% 1 02.08.2026 -
Jon Karrikaburu Burgos Actif 130 / 117 40% 1 01.08.2026 -